Time;durP1;ratioP1;P1;durP2;ratioP2;P2;SDS_P1;SDS_P2;PMS_P1;PMS_P2;Temp;Humidity;BMP_temperature;BMP_pressure;BME280_temperature;BME280_humidity;BME280_pressure;Samples;Min_cycle;Max_cycle;Signal;HPM_P1;HPM_P2
2021/07/10 00:00:13;;;;;;;21.07;15.73;;;17.80;98.30;;;;;;4059879;29;20501;-81
2021/07/10 00:02:16;;;;;;;24.23;15.90;;;17.90;98.30;;;;;;4059616;29;20487;-81
2021/07/10 00:04:19;;;;;;;23.83;16.77;;;17.90;98.30;;;;;;4059140;29;20531;-81
2021/07/10 00:06:22;;;;;;;23.50;16.17;;;17.90;98.30;;;;;;4059098;29;20475;-81
2021/07/10 00:08:25;;;;;;;20.00;15.80;;;17.90;98.30;;;;;;4059261;29;20471;-81
2021/07/10 00:10:28;;;;;;;21.83;16.43;;;17.90;98.30;;;;;;4059244;29;20479;-81
2021/07/10 00:12:30;;;;;;;24.93;16.17;;;17.80;98.30;;;;;;4058742;29;20498;-81
2021/07/10 00:14:35;;;;;;;21.30;16.40;;;17.80;98.30;;;;;;4060095;29;20499;-81
2021/07/10 00:16:38;;;;;;;23.20;16.60;;;17.80;98.30;;;;;;4059062;29;20965;-82
2021/07/10 00:18:41;;;;;;;21.27;15.30;;;17.80;98.30;;;;;;4058297;29;20479;-82
2021/07/10 00:20:44;;;;;;;23.87;17.10;;;17.60;98.30;;;;;;4058670;29;20503;-81
2021/07/10 00:22:47;;;;;;;23.80;16.83;;;17.50;98.30;;;;;;4059474;29;20562;-81
2021/07/10 00:24:50;;;;;;;23.77;16.73;;;17.50;98.30;;;;;;4059701;29;20476;-81
2021/07/10 00:26:53;;;;;;;31.07;18.60;;;17.40;98.30;;;;;;4059047;29;20513;-81
2021/07/10 00:28:56;;;;;;;27.20;16.43;;;17.20;98.30;;;;;;4060447;29;20487;-81
2021/07/10 00:31:00;;;;;;;23.50;17.47;;;17.30;98.30;;;;;;4060477;29;20483;-81
2021/07/10 00:33:03;;;;;;;23.63;18.17;;;17.30;98.30;;;;;;4058096;29;20486;-82
2021/07/10 00:35:08;;;;;;;26.30;18.63;;;17.30;98.30;;;;;;4059054;29;21047;-82
2021/07/10 00:37:11;;;;;;;28.87;18.33;;;17.40;98.30;;;;;;4059408;29;20472;-81
2021/07/10 00:39:14;;;;;;;27.30;16.83;;;17.50;98.30;;;;;;4057958;29;20487;-81
2021/07/10 00:41:17;;;;;;;31.03;17.33;;;17.40;98.30;;;;;;4059553;29;20476;-81
2021/07/10 00:43:22;;;;;;;24.00;17.20;;;17.40;98.30;;;;;;4059073;29;20811;-81
2021/07/10 00:45:25;;;;;;;26.03;17.70;;;17.40;98.30;;;;;;4058859;29;20474;-81
2021/07/10 00:47:29;;;;;;;24.63;17.90;;;17.50;98.30;;;;;;4059301;29;20543;-81
2021/07/10 00:49:32;;;;;;;23.93;17.17;;;17.50;98.30;;;;;;4058824;29;20968;-81
2021/07/10 00:51:35;;;;;;;25.23;17.30;;;17.50;98.30;;;;;;4058721;29;20593;-81
2021/07/10 00:53:38;;;;;;;24.53;15.57;;;17.50;98.30;;;;;;4059304;29;20829;-81
2021/07/10 00:55:42;;;;;;;23.93;17.57;;;17.50;98.30;;;;;;4058287;29;20479;-81
2021/07/10 00:57:46;;;;;;;20.50;15.73;;;17.50;98.30;;;;;;4058028;29;20480;-81
2021/07/10 00:59:49;;;;;;;20.33;16.70;;;17.40;98.30;;;;;;4058773;29;20517;-81
2021/07/10 01:01:53;;;;;;;21.47;16.93;;;17.30;98.30;;;;;;4059011;29;20491;-81
2021/07/10 01:03:57;;;;;;;29.20;16.37;;;17.20;98.30;;;;;;4059625;29;20537;-81
2021/07/10 01:06:01;;;;;;;23.83;16.73;;;17.20;98.30;;;;;;4060650;29;20590;-81
2021/07/10 01:08:05;;;;;;;21.20;16.43;;;17.20;98.30;;;;;;4058559;29;20481;-81
2021/07/10 01:10:09;;;;;;;23.47;16.20;;;17.20;98.30;;;;;;4058578;29;20483;-81
2021/07/10 01:12:12;;;;;;;23.20;17.07;;;17.20;98.30;;;;;;4057800;29;20509;-81
2021/07/10 01:14:15;;;;;;;25.27;15.90;;;17.10;98.30;;;;;;4057127;29;20475;-81
2021/07/10 01:16:18;;;;;;;22.77;17.10;;;17.00;98.30;;;;;;4058293;29;20831;-81
2021/07/10 01:18:21;;;;;;;22.13;16.63;;;17.10;98.30;;;;;;4057913;29;20474;-81
2021/07/10 01:20:27;;;;;;;21.30;15.83;;;17.10;98.30;;;;;;4058514;29;20499;-81
2021/07/10 01:22:34;;;;;;;26.23;19.10;;;17.20;98.30;;;;;;4058167;29;20566;-81
2021/07/10 01:24:37;;;;;;;26.27;16.60;;;17.20;98.30;;;;;;4057459;29;20484;-81
2021/07/10 01:26:40;;;;;;;23.73;17.17;;;17.20;98.30;;;;;;4057900;29;20476;-81
2021/07/10 01:28:43;;;;;;;27.10;16.20;;;17.20;98.30;;;;;;4057844;29;20967;-81
2021/07/10 01:30:47;;;;;;;20.70;13.70;;;17.20;98.30;;;;;;4058584;29;20534;-81
2021/07/10 01:32:52;;;;;;;23.03;15.23;;;17.20;98.30;;;;;;4058280;29;20496;-81
2021/07/10 01:34:56;;;;;;;23.20;15.43;;;17.10;98.30;;;;;;4057862;29;20491;-81
2021/07/10 01:36:59;;;;;;;22.27;15.63;;;17.00;98.30;;;;;;4058022;29;20476;-81
2021/07/10 01:39:06;;;;;;;24.57;15.80;;;17.00;98.30;;;;;;4058928;29;20473;-81
2021/07/10 01:41:09;;;;;;;22.23;16.63;;;16.90;98.30;;;;;;4058367;29;20503;-81
2021/07/10 01:43:13;;;;;;;24.43;15.10;;;16.80;98.30;;;;;;4056844;29;20477;-81
2021/07/10 01:45:17;;;;;;;19.43;15.17;;;16.80;98.30;;;;;;4057358;29;20475;-81
2021/07/10 01:47:20;;;;;;;21.20;15.20;;;16.80;98.30;;;;;;4058941;29;20480;-81
2021/07/10 01:49:23;;;;;;;22.13;15.10;;;16.70;98.30;;;;;;4058187;29;20479;-81
2021/07/10 01:51:25;;;;;;;22.53;14.60;;;16.70;98.30;;;;;;4059018;29;21013;-81
2021/07/10 01:53:28;;;;;;;21.40;15.20;;;16.80;98.30;;;;;;4058883;29;20481;-81
2021/07/10 01:55:33;;;;;;;21.43;15.00;;;16.90;98.30;;;;;;4057387;29;20473;-81
2021/07/10 01:57:36;;;;;;;23.40;15.53;;;16.90;98.30;;;;;;4058083;29;20470;-81
2021/07/10 01:59:39;;;;;;;21.73;15.10;;;16.90;98.30;;;;;;4058813;29;20471;-81
2021/07/10 02:01:46;;;;;;;24.63;15.73;;;16.80;98.30;;;;;;4057069;29;20871;-81
2021/07/10 02:03:49;;;;;;;23.77;16.00;;;16.80;98.30;;;;;;4058100;29;20877;-80
2021/07/10 02:05:54;;;;;;;23.17;16.17;;;16.80;98.30;;;;;;4058093;29;20996;-81
2021/07/10 02:07:59;;;;;;;22.83;16.80;;;16.90;98.30;;;;;;4058474;29;20475;-81
2021/07/10 02:10:02;;;;;;;20.57;16.07;;;17.00;98.30;;;;;;4057876;29;20474;-81
2021/07/10 02:12:07;;;;;;;19.43;14.80;;;17.00;98.30;;;;;;4058128;29;20502;-81
2021/07/10 02:14:10;;;;;;;27.00;16.17;;;16.90;98.30;;;;;;4058346;29;20494;-81
2021/07/10 02:16:15;;;;;;;20.93;15.30;;;16.80;98.30;;;;;;4058019;29;20473;-81
2021/07/10 02:18:18;;;;;;;21.57;15.60;;;16.80;98.30;;;;;;4058899;29;20837;-81
2021/07/10 02:20:23;;;;;;;19.47;15.00;;;16.80;98.30;;;;;;4057953;29;20885;-81
2021/07/10 02:22:26;;;;;;;24.53;15.57;;;16.70;98.30;;;;;;4058493;29;20498;-81
2021/07/10 02:24:29;;;;;;;21.50;15.77;;;16.60;98.30;;;;;;4058639;29;20491;-81
2021/07/10 02:26:32;;;;;;;26.60;15.77;;;16.60;98.30;;;;;;4059740;29;20939;-81
2021/07/10 02:28:37;;;;;;;25.83;16.70;;;16.70;98.30;;;;;;4058136;29;20470;-81
2021/07/10 02:30:40;;;;;;;22.43;15.93;;;16.60;98.30;;;;;;4059014;29;20467;-81
2021/07/10 02:32:45;;;;;;;33.07;16.40;;;16.50;98.30;;;;;;4057970;29;20491;-81
2021/07/10 02:34:47;;;;;;;23.70;15.60;;;16.60;98.30;;;;;;4057964;29;20859;-81
2021/07/10 02:36:50;;;;;;;26.50;16.40;;;16.60;98.30;;;;;;4057883;29;20884;-81
2021/07/10 02:38:53;;;;;;;24.77;15.70;;;16.50;98.30;;;;;;4058097;29;20840;-81
2021/07/10 02:40:56;;;;;;;27.47;17.20;;;16.50;98.30;;;;;;4058474;29;20492;-81
2021/07/10 02:42:59;;;;;;;27.10;17.37;;;16.60;98.30;;;;;;4060661;29;20491;-81
2021/07/10 02:45:05;;;;;;;25.80;18.37;;;16.60;98.30;;;;;;4061233;29;21054;-81
2021/07/10 02:47:08;;;;;;;22.83;16.57;;;16.60;98.30;;;;;;4060266;29;20483;-81
2021/07/10 02:49:11;;;;;;;23.70;16.70;;;16.60;98.30;;;;;;4060344;29;20480;-81
2021/07/10 02:51:14;;;;;;;23.50;18.60;;;16.50;98.30;;;;;;4060403;29;20468;-80
2021/07/10 02:53:17;;;;;;;23.50;17.20;;;16.50;98.30;;;;;;4060270;29;20470;-81
2021/07/10 02:55:20;;;;;;;27.23;17.03;;;16.50;98.30;;;;;;4060833;29;20495;-80
2021/07/10 02:57:23;;;;;;;24.10;17.20;;;16.60;98.30;;;;;;4060741;29;20519;-80
2021/07/10 02:59:26;;;;;;;29.77;17.97;;;16.60;98.30;;;;;;4060763;29;20471;-81
2021/07/10 03:01:30;;;;;;;26.93;17.13;;;16.60;98.30;;;;;;4059951;29;20514;-81
2021/07/10 03:03:34;;;;;;;21.80;16.10;;;16.60;98.30;;;;;;4061093;29;20849;-81
2021/07/10 03:05:38;;;;;;;27.77;16.77;;;16.50;98.30;;;;;;4061374;29;20839;-80
2021/07/10 03:07:42;;;;;;;19.70;16.70;;;16.50;98.30;;;;;;4059880;29;20483;-81
2021/07/10 03:09:45;;;;;;;27.60;16.73;;;16.50;98.30;;;;;;4060046;29;21075;-81
2021/07/10 03:11:49;;;;;;;25.10;16.40;;;16.40;98.30;;;;;;4060005;29;21063;-81
2021/07/10 03:13:52;;;;;;;26.27;17.53;;;16.30;98.30;;;;;;4060507;29;20565;-81
2021/07/10 03:15:55;;;;;;;23.80;17.23;;;16.30;98.30;;;;;;4060268;29;20478;-80
2021/07/10 03:17:59;;;;;;;23.30;16.77;;;16.30;98.30;;;;;;4060451;29;20811;-81
2021/07/10 03:20:02;;;;;;;25.03;15.37;;;16.40;98.30;;;;;;4060432;29;20866;-81
2021/07/10 03:22:05;;;;;;;26.20;17.83;;;16.40;98.30;;;;;;4061345;29;20601;-81
2021/07/10 03:24:08;;;;;;;43.87;18.83;;;16.40;98.30;;;;;;4060378;29;20478;-80
2021/07/10 03:26:11;;;;;;;22.27;16.60;;;16.40;98.30;;;;;;4059121;29;20467;-80
2021/07/10 03:28:14;;;;;;;24.00;18.43;;;16.40;98.30;;;;;;4059707;29;20494;-81
2021/07/10 03:30:20;;;;;;;24.23;15.93;;;16.40;98.30;;;;;;4059457;29;20554;-80
2021/07/10 06:53:22;;;;;;;9.50;8.20;;;18.50;98.30;;;;;;4060245;29;21017;-85
2021/07/10 07:08:46;;;;;;;9.10;8.20;;;18.30;98.30;;;;;;4054347;29;20527;-85
2021/07/10 07:11:06;;;;;;;9.23;8.20;;;18.40;98.30;;;;;;4038047;29;20459;-79
2021/07/10 07:13:10;;;;;;;77.67;29.00;;;18.40;98.30;;;;;;4053704;29;20494;-84
2021/07/10 07:18:35;;;;;;;13.33;9.30;;;18.50;98.30;;;;;;4061360;29;20434;-78
2021/07/10 07:20:41;;;;;;;9.03;8.13;;;18.50;98.30;;;;;;4059729;29;20479;-78
2021/07/10 07:22:47;;;;;;;13.03;9.37;;;18.50;98.30;;;;;;4057738;29;20679;-79
2021/07/10 07:24:50;;;;;;;12.30;9.13;;;18.50;98.30;;;;;;4056453;29;20506;-77
2021/07/10 07:26:53;;;;;;;10.70;9.30;;;18.40;98.30;;;;;;4056507;29;20490;-78
2021/07/10 07:28:55;;;;;;;11.03;8.50;;;18.30;98.30;;;;;;4058586;29;20991;-78
2021/07/10 07:31:00;;;;;;;12.67;9.53;;;18.30;98.30;;;;;;4060526;29;20470;-76
2021/07/10 07:33:06;;;;;;;103.30;38.33;;;18.30;98.30;;;;;;4062761;29;20488;-77
2021/07/10 07:35:11;;;;;;;11.77;9.20;;;18.30;98.30;;;;;;4060880;29;20548;-77
2021/07/10 07:37:15;;;;;;;13.43;9.10;;;18.20;98.30;;;;;;4061915;29;20471;-77
2021/07/10 07:39:18;;;;;;;12.50;9.20;;;18.10;98.30;;;;;;4058321;29;20475;-76
2021/07/10 07:41:21;;;;;;;12.03;9.17;;;18.10;98.30;;;;;;4058870;29;20836;-77
2021/07/10 07:43:24;;;;;;;11.13;8.60;;;18.10;98.30;;;;;;4059089;29;20503;-76
2021/07/10 07:45:27;;;;;;;16.40;9.20;;;18.10;98.30;;;;;;4061016;29;20483;-77
2021/07/10 08:11:09;;;;;;;9.77;7.63;;;18.60;98.30;;;;;;4045521;29;20450;-78
2021/07/10 08:37:45;;;;;;;9.40;6.83;;;18.70;98.30;;;;;;3814583;23;20532;-74
2021/07/10 08:39:48;;;;;;;9.00;6.90;;;18.90;98.30;;;;;;4074721;29;20819;-74
2021/07/10 08:41:51;;;;;;;7.87;6.90;;;19.10;98.30;;;;;;4076774;29;21028;-75
2021/07/10 08:43:54;;;;;;;8.10;7.00;;;19.10;98.30;;;;;;4074965;29;20482;-77
2021/07/10 08:45:58;;;;;;;10.00;6.50;;;19.10;98.30;;;;;;4076252;29;20468;-78
2021/07/10 08:48:03;;;;;;;7.83;7.10;;;19.30;98.30;;;;;;4076567;29;21131;-79
2021/07/10 10:43:32;;;;;;;7.03;6.33;;;21.60;98.30;;;;;;4049753;29;20853;-80
2021/07/10 10:58:26;;;;;;;7.67;6.93;;;22.00;98.30;;;;;;4052540;29;20459;-79
2021/07/10 11:00:46;;;;;;;8.33;6.17;;;21.70;98.30;;;;;;4049738;29;20841;-79
2021/07/10 11:03:11;;;;;;;5.70;5.20;;;22.00;98.30;;;;;;4065138;29;20537;-79
2021/07/10 11:05:57;;;;;;;6.83;6.00;;;22.40;98.30;;;;;;4055451;29;20468;-79
2021/07/10 12:28:45;;;;;;;5.47;4.93;;;24.70;87.40;;;;;;4043231;29;20526;-81
2021/07/10 12:31:19;;;;;;;5.30;4.80;;;24.50;87.20;;;;;;4052515;29;20468;-79
2021/07/10 12:33:46;;;;;;;5.23;4.83;;;25.00;86.60;;;;;;4053712;29;20472;-79
2021/07/10 12:36:14;;;;;;;5.40;5.00;;;24.70;87.70;;;;;;4053799;29;20480;-79
2021/07/10 12:38:17;;;;;;;6.47;5.80;;;24.30;89.00;;;;;;4056323;29;20508;-79
2021/07/10 12:40:20;;;;;;;5.60;5.20;;;24.00;90.10;;;;;;4052281;29;20484;-80
2021/07/10 12:42:22;;;;;;;5.80;5.30;;;24.30;89.20;;;;;;4051934;29;20564;-80
2021/07/10 12:45:08;;;;;;;5.90;5.50;;;24.20;89.60;;;;;;4050828;29;20995;-79
2021/07/10 12:50:05;;;;;;;8.23;7.47;;;25.40;87.00;;;;;;4049391;29;20944;-80
2021/07/10 14:05:10;;;;;;;5.17;4.77;;;27.20;81.20;;;;;;4676589;23;20610;-81
2021/07/10 14:07:16;;;;;;;4.97;4.47;;;27.00;83.00;;;;;;4065393;29;20484;-80
2021/07/10 14:11:55;;;;;;;7.73;5.53;;;25.80;85.30;;;;;;4065497;29;20479;-80
2021/07/10 14:23:50;;;;;;;6.13;5.53;;;26.20;84.70;;;;;;4032392;29;20947;-79
2021/07/10 14:42:32;;;;;;;6.20;5.60;;;25.20;86.50;;;;;;4005080;29;21019;-81
2021/07/10 15:28:26;;;;;;;6.60;6.00;;;24.80;89.20;;;;;;4780165;23;20521;-82
2021/07/10 15:30:44;;;;;;;7.17;5.83;;;25.00;88.50;;;;;;4130951;28;20467;-81
2021/07/10 15:32:56;;;;;;;6.30;5.73;;;24.90;88.70;;;;;;4127943;28;20502;-82
2021/07/10 15:35:04;;;;;;;6.40;5.80;;;24.80;89.40;;;;;;4127550;28;20963;-82
2021/07/10 15:37:15;;;;;;;7.80;6.50;;;24.80;89.20;;;;;;4131958;28;20466;-82
2021/07/10 17:26:28;;;;;;;8.70;6.60;;;24.20;94.30;;;;;;427691;26;20745;-80
2021/07/10 17:28:53;;;;;;;11.83;8.10;;;24.10;94.90;;;;;;4146781;28;20482;-81
2021/07/10 17:32:14;;;;;;;6.97;6.10;;;24.00;95.60;;;;;;4128512;28;20522;-80
2021/07/10 20:05:53;;;;;;;7.97;7.27;;;21.60;98.30;;;;;;4787679;23;20493;-80
2021/07/10 21:45:50;;;;;;;10.53;9.53;;;20.60;98.30;;;;;;4078672;29;20474;-83
2021/07/10 21:58:09;;;;;;;9.83;8.93;;;20.30;98.30;;;;;;4092856;28;20460;-83
